Time;durP1;ratioP1;P1;durP2;ratioP2;P2;SDS_P1;SDS_P2;PMS_P1;PMS_P2;Temp;Humidity;BMP_temperature;BMP_pressure;BME280_temperature;BME280_humidity;BME280_pressure;Samples;Min_cycle;Max_cycle;Signal;HPM_P1;HPM_P2
2022/04/29 00:02:14;;;;;;;4.00;2.87;;;;;;;;;;5093384;28;20443;-73
2022/04/29 00:04:42;;;;;;;2.50;2.30;;;;;;;;;;5092472;28;20445;-74
2022/04/29 00:07:09;;;;;;;3.37;2.97;;;;;;;;;;5093091;28;20937;-73
2022/04/29 00:09:37;;;;;;;3.20;2.90;;;;;;;;;;5092783;28;20860;-73
2022/04/29 00:12:08;;;;;;;12.63;2.83;;;;;;;;;;5092697;28;20448;-73
2022/04/29 00:14:35;;;;;;;3.63;2.37;;;;;;;;;;5091821;28;20479;-73
2022/04/29 00:17:02;;;;;;;3.67;3.30;;;;;;;;;;5093189;28;20536;-73
2022/04/29 00:19:30;;;;;;;1.90;1.80;;;;;;;;;;5092513;28;20466;-73
2022/04/29 00:21:57;;;;;;;2.50;2.30;;;;;;;;;;5092960;28;20989;-73
2022/04/29 00:24:24;;;;;;;2.90;2.60;;;;;;;;;;5092462;28;20853;-73
2022/04/29 00:26:51;;;;;;;2.20;2.03;;;;;;;;;;5092065;28;20452;-73
2022/04/29 00:29:20;;;;;;;3.43;1.70;;;;;;;;;;5082657;28;20447;-73
2022/04/29 00:31:47;;;;;;;4.10;3.20;;;;;;;;;;5091310;28;20793;-73
2022/04/29 00:34:15;;;;;;;3.93;2.70;;;;;;;;;;5092311;28;20502;-73
2022/04/29 00:36:42;;;;;;;2.60;2.40;;;;;;;;;;5091975;28;20474;-73
2022/04/29 00:39:09;;;;;;;3.80;2.57;;;;;;;;;;5071077;28;20444;-76
2022/04/29 00:41:36;;;;;;;2.80;2.33;;;;;;;;;;5086100;28;20467;-75
2022/04/29 00:44:04;;;;;;;4.90;2.90;;;;;;;;;;5092166;28;20932;-74
2022/04/29 00:46:36;;;;;;;3.67;2.97;;;;;;;;;;5075889;28;20516;-72
2022/04/29 00:49:03;;;;;;;2.10;1.90;;;;;;;;;;5092012;28;20917;-75
2022/04/29 00:51:30;;;;;;;2.70;2.50;;;;;;;;;;5091962;28;20452;-73
2022/04/29 00:53:58;;;;;;;4.73;2.87;;;;;;;;;;5087016;28;20714;-74
2022/04/29 00:56:26;;;;;;;2.73;2.50;;;;;;;;;;5075278;28;20768;-77
2022/04/29 00:58:56;;;;;;;3.53;3.23;;;;;;;;;;5080951;28;20881;-74
2022/04/29 01:01:25;;;;;;;3.63;2.67;;;;;;;;;;5075241;28;20439;-73
2022/04/29 01:03:53;;;;;;;2.50;1.70;;;;;;;;;;5070387;28;20442;-73
2022/04/29 01:06:20;;;;;;;2.83;2.50;;;;;;;;;;5067454;28;20773;-73
2022/04/29 01:08:48;;;;;;;3.87;2.50;;;;;;;;;;5079326;28;20469;-73
2022/04/29 01:11:15;;;;;;;4.13;2.70;;;;;;;;;;5074913;28;20535;-74
2022/04/29 01:13:42;;;;;;;2.40;2.07;;;;;;;;;;5086774;28;20434;-73
2022/04/29 01:16:09;;;;;;;3.37;2.83;;;;;;;;;;5086958;28;20475;-73
2022/04/29 01:18:37;;;;;;;4.73;3.43;;;;;;;;;;5088272;28;20450;-72
2022/04/29 01:21:06;;;;;;;3.60;2.73;;;;;;;;;;5091735;28;20453;-73
2022/04/29 01:23:35;;;;;;;4.00;2.27;;;;;;;;;;5091106;28;20497;-74
2022/04/29 01:26:04;;;;;;;3.73;2.43;;;;;;;;;;5084382;28;20456;-73
2022/04/29 01:28:32;;;;;;;3.53;2.57;;;;;;;;;;5074829;28;20467;-72
2022/04/29 01:30:59;;;;;;;2.10;1.90;;;;;;;;;;5057412;28;20539;-73
2022/04/29 01:33:28;;;;;;;3.57;2.60;;;;;;;;;;5084836;28;20474;-73
2022/04/29 01:35:56;;;;;;;1.90;1.80;;;;;;;;;;5064557;28;20477;-73
2022/04/29 01:38:23;;;;;;;5.50;3.43;;;;;;;;;;5085018;28;20442;-73
2022/04/29 01:40:51;;;;;;;2.47;2.27;;;;;;;;;;5066899;28;20458;-73
2022/04/29 01:43:18;;;;;;;3.67;2.20;;;;;;;;;;5069617;28;20452;-74
2022/04/29 01:45:46;;;;;;;2.43;2.20;;;;;;;;;;5079434;28;20450;-73
2022/04/29 01:48:13;;;;;;;5.47;2.13;;;;;;;;;;5091416;28;20481;-73
2022/04/29 01:50:40;;;;;;;3.50;2.37;;;;;;;;;;5072586;28;20447;-73
2022/04/29 01:53:07;;;;;;;2.00;1.90;;;;;;;;;;5066840;28;20460;-73
2022/04/29 01:55:34;;;;;;;2.83;2.57;;;;;;;;;;5066341;28;20993;-73
2022/04/29 01:58:03;;;;;;;2.90;2.30;;;;;;;;;;5089350;28;20513;-74
2022/04/29 02:00:31;;;;;;;3.77;3.37;;;;;;;;;;5067324;28;20440;-73
2022/04/29 02:02:58;;;;;;;3.07;2.67;;;;;;;;;;5067367;28;21011;-74
2022/04/29 02:05:26;;;;;;;3.07;2.40;;;;;;;;;;5076968;28;20533;-73
2022/04/29 02:07:53;;;;;;;2.90;2.60;;;;;;;;;;5076007;28;20443;-73
2022/04/29 02:10:21;;;;;;;2.67;2.00;;;;;;;;;;5075110;28;20439;-73
2022/04/29 02:12:48;;;;;;;2.43;1.87;;;;;;;;;;5080043;28;20439;-73
2022/04/29 02:15:17;;;;;;;3.67;3.27;;;;;;;;;;5073665;28;20561;-74
2022/04/29 02:17:44;;;;;;;3.23;2.73;;;;;;;;;;5083777;28;20447;-73
2022/04/29 02:20:14;;;;;;;4.10;3.20;;;;;;;;;;5070762;28;20464;-74
2022/04/29 02:22:41;;;;;;;3.43;3.13;;;;;;;;;;5070940;28;20814;-73
2022/04/29 02:25:09;;;;;;;2.80;2.50;;;;;;;;;;5062652;28;20856;-73
2022/04/29 02:27:38;;;;;;;3.40;2.57;;;;;;;;;;5082590;28;20541;-73
2022/04/29 02:30:06;;;;;;;2.60;2.20;;;;;;;;;;5072973;28;20437;-73
2022/04/29 02:32:35;;;;;;;6.70;2.67;;;;;;;;;;5086654;28;20456;-74
2022/04/29 02:35:02;;;;;;;3.60;2.67;;;;;;;;;;5083701;28;20474;-73
2022/04/29 02:37:29;;;;;;;4.00;3.20;;;;;;;;;;5065944;28;20447;-72
2022/04/29 02:39:56;;;;;;;2.93;2.63;;;;;;;;;;5074544;28;20447;-74
2022/04/29 02:42:23;;;;;;;3.40;2.40;;;;;;;;;;5082636;28;20633;-75
2022/04/29 02:44:50;;;;;;;2.80;2.60;;;;;;;;;;5067704;28;20446;-74
2022/04/29 02:47:18;;;;;;;3.30;2.60;;;;;;;;;;5061244;28;20448;-74
2022/04/29 02:49:48;;;;;;;2.67;2.47;;;;;;;;;;5084247;28;22141;-74
2022/04/29 02:52:15;;;;;;;4.70;3.43;;;;;;;;;;5064215;28;20443;-73
2022/04/29 02:54:43;;;;;;;2.80;2.47;;;;;;;;;;5065452;28;20793;-73
2022/04/29 02:57:10;;;;;;;2.60;2.40;;;;;;;;;;5073233;28;20464;-74
2022/04/29 02:59:37;;;;;;;2.67;2.43;;;;;;;;;;5081881;28;20473;-73
2022/04/29 03:02:05;;;;;;;5.40;4.00;;;;;;;;;;5072063;28;20810;-73
2022/04/29 03:04:32;;;;;;;5.20;3.30;;;;;;;;;;5077232;28;20524;-73
2022/04/29 03:07:01;;;;;;;4.43;3.20;;;;;;;;;;5059789;28;20450;-73
2022/04/29 03:09:28;;;;;;;2.70;2.50;;;;;;;;;;5093776;28;20434;-75
2022/04/29 03:11:55;;;;;;;3.73;3.27;;;;;;;;;;5085530;28;20539;-73
2022/04/29 03:14:22;;;;;;;3.70;3.40;;;;;;;;;;5080189;28;20455;-73
2022/04/29 03:16:49;;;;;;;2.83;2.63;;;;;;;;;;5084717;28;20568;-74
2022/04/29 03:19:17;;;;;;;3.10;2.73;;;;;;;;;;5066206;28;20450;-73
2022/04/29 03:21:44;;;;;;;3.83;3.53;;;;;;;;;;5083258;28;20441;-73
2022/04/29 03:24:13;;;;;;;3.97;2.87;;;;;;;;;;5079288;28;20441;-73
2022/04/29 03:26:40;;;;;;;4.30;2.47;;;;;;;;;;5083593;28;20458;-74
2022/04/29 03:29:08;;;;;;;5.13;2.60;;;;;;;;;;5073860;28;20454;-74
2022/04/29 03:31:35;;;;;;;4.10;3.70;;;;;;;;;;5086622;28;20448;-73
2022/04/29 03:34:02;;;;;;;3.40;2.83;;;;;;;;;;5091653;28;20502;-74
2022/04/29 03:36:29;;;;;;;3.00;2.53;;;;;;;;;;5089485;28;20475;-73
2022/04/29 03:38:56;;;;;;;3.73;3.30;;;;;;;;;;5066195;28;20445;-74
2022/04/29 03:41:25;;;;;;;3.30;2.80;;;;;;;;;;5080665;28;20451;-74
2022/04/29 03:43:52;;;;;;;3.30;3.00;;;;;;;;;;5077194;28;20481;-73
2022/04/29 03:46:19;;;;;;;4.13;3.33;;;;;;;;;;5064788;28;20525;-74
2022/04/29 03:51:31;;;;;;;9.40;4.13;;;;;;;;;;5076218;28;20412;-73
2022/04/29 03:53:58;;;;;;;3.67;3.20;;;;;;;;;;5082651;28;20446;-73
2022/04/29 03:56:27;;;;;;;3.87;2.97;;;;;;;;;;5074865;28;20958;-75
2022/04/29 03:58:54;;;;;;;4.07;3.13;;;;;;;;;;5080036;28;20481;-74
2022/04/29 04:01:21;;;;;;;3.40;3.07;;;;;;;;;;5061945;28;20946;-74
2022/04/29 04:03:48;;;;;;;5.47;3.00;;;;;;;;;;5075572;28;20884;-73
2022/04/29 04:09:00;;;;;;;8.67;4.67;;;;;;;;;;5085188;28;20439;-73
2022/04/29 04:11:29;;;;;;;3.97;3.67;;;;;;;;;;5081556;28;20442;-73
2022/04/29 04:13:56;;;;;;;3.03;2.70;;;;;;;;;;5078818;28;20469;-74
2022/04/29 04:16:24;;;;;;;4.23;3.83;;;;;;;;;;5088616;28;20480;-74
2022/04/29 04:18:51;;;;;;;4.50;4.10;;;;;;;;;;5092045;28;20441;-75
2022/04/29 04:21:19;;;;;;;2.57;2.33;;;;;;;;;;5093544;28;20449;-74
2022/04/29 04:23:46;;;;;;;3.20;2.90;;;;;;;;;;5090491;28;20810;-73
2022/04/29 04:26:13;;;;;;;10.67;2.80;;;;;;;;;;5076133;28;20521;-74
2022/04/29 04:28:42;;;;;;;2.80;2.60;;;;;;;;;;5070867;28;20458;-74
2022/04/29 04:31:09;;;;;;;4.33;3.57;;;;;;;;;;5065812;28;20473;-73
2022/04/29 04:33:36;;;;;;;5.37;4.07;;;;;;;;;;5076762;28;20433;-74
2022/04/29 04:36:04;;;;;;;4.70;3.63;;;;;;;;;;5072175;28;20570;-73
2022/04/29 04:38:31;;;;;;;3.83;3.53;;;;;;;;;;5077358;28;20459;-72
2022/04/29 04:40:58;;;;;;;2.60;2.40;;;;;;;;;;5081233;28;20451;-74
2022/04/29 04:43:27;;;;;;;4.37;3.77;;;;;;;;;;5087675;28;20525;-74
2022/04/29 04:45:56;;;;;;;3.53;3.23;;;;;;;;;;5076458;28;20472;-74
2022/04/29 04:48:24;;;;;;;4.07;3.40;;;;;;;;;;5084788;28;20458;-74
2022/04/29 04:50:51;;;;;;;3.77;3.47;;;;;;;;;;5066515;28;20512;-74
2022/04/29 04:53:18;;;;;;;2.97;2.57;;;;;;;;;;5070735;28;20967;-74
2022/04/29 04:55:45;;;;;;;3.03;2.43;;;;;;;;;;5069799;28;20476;-73
2022/04/29 04:58:13;;;;;;;3.27;2.97;;;;;;;;;;5085490;28;20982;-74
2022/04/29 05:00:40;;;;;;;4.10;3.53;;;;;;;;;;5062088;28;20450;-74
2022/04/29 05:03:09;;;;;;;5.10;3.90;;;;;;;;;;5066510;28;20479;-73
2022/04/29 05:05:36;;;;;;;4.30;3.50;;;;;;;;;;5069774;28;20451;-74
2022/04/29 05:08:03;;;;;;;4.47;4.00;;;;;;;;;;5070198;28;20880;-74
2022/04/29 05:10:30;;;;;;;3.63;3.10;;;;;;;;;;5063232;28;20525;-73
2022/04/29 05:12:58;;;;;;;4.80;3.00;;;;;;;;;;5072077;28;20789;-73
2022/04/29 05:15:25;;;;;;;3.83;3.40;;;;;;;;;;5083573;28;20521;-73
2022/04/29 05:17:52;;;;;;;5.13;3.53;;;;;;;;;;5088235;28;20976;-74
2022/04/29 05:20:20;;;;;;;5.43;4.17;;;;;;;;;;5063585;28;20537;-74
2022/04/29 05:22:48;;;;;;;4.67;3.73;;;;;;;;;;5085248;28;20448;-74
2022/04/29 05:25:15;;;;;;;6.60;3.07;;;;;;;;;;5066218;28;20438;-73
2022/04/29 05:27:42;;;;;;;6.47;3.00;;;;;;;;;;5074876;28;20469;-73
2022/04/29 05:30:10;;;;;;;4.37;3.43;;;;;;;;;;5076585;28;20443;-72
2022/04/29 05:32:39;;;;;;;3.30;3.00;;;;;;;;;;5073526;28;20467;-73
2022/04/29 05:35:06;;;;;;;4.50;3.87;;;;;;;;;;5078984;28;20526;-73
2022/04/29 05:37:35;;;;;;;4.00;3.30;;;;;;;;;;5054896;28;20564;-73
2022/04/29 05:42:47;;;;;;;5.33;3.17;;;;;;;;;;5083183;28;20653;-73
2022/04/29 05:45:14;;;;;;;4.63;3.63;;;;;;;;;;5065689;28;20483;-73
2022/04/29 05:47:41;;;;;;;3.57;3.00;;;;;;;;;;5073734;28;20550;-74
2022/04/29 05:50:09;;;;;;;4.90;3.10;;;;;;;;;;5079379;28;20989;-74
2022/04/29 05:52:37;;;;;;;4.30;2.93;;;;;;;;;;5073984;28;20444;-75
2022/04/29 05:55:05;;;;;;;5.00;3.87;;;;;;;;;;5075854;28;20452;-75
2022/04/29 05:57:32;;;;;;;4.80;3.30;;;;;;;;;;5077022;28;20508;-73
2022/04/29 05:59:59;;;;;;;5.70;3.83;;;;;;;;;;5064542;28;20485;-74
2022/04/29 06:02:26;;;;;;;3.80;3.33;;;;;;;;;;5069423;28;20929;-75
2022/04/29 06:04:54;;;;;;;4.90;4.23;;;;;;;;;;5074464;28;20986;-74
2022/04/29 06:07:21;;;;;;;4.20;3.60;;;;;;;;;;5077834;28;20944;-73
2022/04/29 06:09:49;;;;;;;4.70;3.80;;;;;;;;;;5070313;28;20494;-75
2022/04/29 06:12:16;;;;;;;4.33;3.33;;;;;;;;;;5080758;28;20930;-74
2022/04/29 06:14:45;;;;;;;4.47;3.90;;;;;;;;;;5063721;28;20459;-73
2022/04/29 06:17:12;;;;;;;4.47;3.97;;;;;;;;;;5075406;28;20483;-76
2022/04/29 06:19:40;;;;;;;4.57;4.00;;;;;;;;;;5058770;28;20922;-74
2022/04/29 06:22:07;;;;;;;4.33;3.93;;;;;;;;;;5077698;28;20446;-74
2022/04/29 06:24:34;;;;;;;4.20;3.80;;;;;;;;;;5085726;28;20445;-72
2022/04/29 06:27:03;;;;;;;3.40;3.10;;;;;;;;;;5071459;28;20559;-73
2022/04/29 06:29:30;;;;;;;6.53;4.20;;;;;;;;;;5074145;28;20445;-74
2022/04/29 06:31:57;;;;;;;4.60;3.73;;;;;;;;;;5065750;28;20529;-74
2022/04/29 06:34:25;;;;;;;4.17;3.77;;;;;;;;;;5071332;28;20440;-74
2022/04/29 06:36:52;;;;;;;5.27;4.83;;;;;;;;;;5079160;28;20569;-75
2022/04/29 06:39:19;;;;;;;4.17;3.80;;;;;;;;;;5074199;28;20477;-73
2022/04/29 06:41:46;;;;;;;4.30;3.40;;;;;;;;;;5080033;28;20444;-73
2022/04/29 06:44:15;;;;;;;6.27;4.67;;;;;;;;;;5063577;28;20481;-73
2022/04/29 06:46:42;;;;;;;5.70;4.00;;;;;;;;;;5072948;28;20471;-75
2022/04/29 06:49:09;;;;;;;4.97;4.40;;;;;;;;;;5060605;28;20539;-75
2022/04/29 06:51:36;;;;;;;4.93;4.40;;;;;;;;;;5086782;28;20838;-73
2022/04/29 06:54:04;;;;;;;4.80;3.67;;;;;;;;;;5089376;28;20529;-73
2022/04/29 06:56:31;;;;;;;5.30;4.80;;;;;;;;;;5072909;28;20475;-73
2022/04/29 06:58:58;;;;;;;5.67;5.00;;;;;;;;;;5083107;28;20515;-74
2022/04/29 07:01:27;;;;;;;6.17;5.40;;;;;;;;;;5065094;28;20846;-75
2022/04/29 07:03:54;;;;;;;5.60;4.30;;;;;;;;;;5085912;28;20436;-75
2022/04/29 07:06:23;;;;;;;6.53;4.50;;;;;;;;;;5074309;28;20953;-75
2022/04/29 07:08:50;;;;;;;6.20;5.00;;;;;;;;;;5064652;28;20963;-75
2022/04/29 07:11:17;;;;;;;6.07;4.13;;;;;;;;;;5083426;28;20467;-76
2022/04/29 07:13:44;;;;;;;7.67;4.70;;;;;;;;;;5093297;28;20443;-74
2022/04/29 07:16:12;;;;;;;6.60;4.20;;;;;;;;;;5075397;28;20484;-75
2022/04/29 07:18:41;;;;;;;7.60;4.93;;;;;;;;;;5090185;28;20807;-74
2022/04/29 07:21:08;;;;;;;8.53;5.70;;;;;;;;;;5085480;28;20487;-75
2022/04/29 07:23:35;;;;;;;6.13;5.43;;;;;;;;;;5093118;28;20491;-74
2022/04/29 07:26:02;;;;;;;7.50;5.00;;;;;;;;;;5077911;28;20473;-73
2022/04/29 07:28:30;;;;;;;6.40;4.83;;;;;;;;;;5065720;28;20484;-72
2022/04/29 07:30:57;;;;;;;6.37;4.60;;;;;;;;;;5083964;28;20437;-75
2022/04/29 07:33:25;;;;;;;5.87;5.27;;;;;;;;;;5093537;28;20441;-75
2022/04/29 07:44:08;;;;;;;4.47;4.07;;;;;;;;;;5078848;28;20468;-75
2022/04/29 07:46:36;;;;;;;7.40;4.60;;;;;;;;;;5077396;28;20539;-74
2022/04/29 07:49:04;;;;;;;5.73;4.83;;;;;;;;;;5088359;28;20767;-74
2022/04/29 07:51:33;;;;;;;4.73;4.23;;;;;;;;;;5082903;28;20446;-73
2022/04/29 07:54:00;;;;;;;6.83;4.37;;;;;;;;;;5079683;28;20463;-75
2022/04/29 07:56:27;;;;;;;6.97;5.30;;;;;;;;;;5066612;28;20487;-75
2022/04/29 07:58:55;;;;;;;5.87;4.23;;;;;;;;;;5077841;28;20527;-74
2022/04/29 08:01:22;;;;;;;6.37;4.13;;;;;;;;;;5084173;28;20515;-74
2022/04/29 08:03:50;;;;;;;7.23;4.70;;;;;;;;;;5087669;28;20917;-73
2022/04/29 08:06:19;;;;;;;5.80;3.90;;;;;;;;;;5076086;28;20451;-73
2022/04/29 08:08:47;;;;;;;5.83;4.30;;;;;;;;;;5070702;28;20467;-73
2022/04/29 08:11:15;;;;;;;8.10;3.43;;;;;;;;;;5093266;28;20451;-74
2022/04/29 08:13:44;;;;;;;6.90;4.27;;;;;;;;;;5088245;28;20798;-73
2022/04/29 08:16:11;;;;;;;7.83;4.53;;;;;;;;;;5082890;28;20448;-74
2022/04/29 08:18:39;;;;;;;5.07;4.53;;;;;;;;;;5074539;28;20507;-74
2022/04/29 08:21:06;;;;;;;7.00;4.70;;;;;;;;;;5072653;28;20500;-75
2022/04/29 08:23:34;;;;;;;6.60;5.17;;;;;;;;;;5089953;28;20512;-74
2022/04/29 08:26:02;;;;;;;4.73;3.70;;;;;;;;;;5084422;28;20464;-74
2022/04/29 08:28:30;;;;;;;7.13;5.37;;;;;;;;;;5074821;28;20463;-73
2022/04/29 08:30:57;;;;;;;7.73;5.07;;;;;;;;;;5076455;28;20494;-74
2022/04/29 08:33:26;;;;;;;5.00;4.00;;;;;;;;;;5091586;28;20919;-74
2022/04/29 08:35:53;;;;;;;4.20;3.50;;;;;;;;;;5076785;28;20472;-74
2022/04/29 08:38:20;;;;;;;7.70;4.47;;;;;;;;;;5092474;28;20545;-74
2022/04/29 08:40:48;;;;;;;5.30;3.63;;;;;;;;;;5086397;28;20444;-74
2022/04/29 08:43:21;;;;;;;3.93;3.53;;;;;;;;;;5066203;28;20472;-74
2022/04/29 08:45:48;;;;;;;5.20;4.53;;;;;;;;;;5082809;28;20438;-74
2022/04/29 08:48:15;;;;;;;5.00;3.37;;;;;;;;;;5067578;28;20452;-74
2022/04/29 08:50:42;;;;;;;3.70;2.40;;;25.60;1.00;;;;;;5090263;28;20528;-75
2022/04/29 08:53:09;;;;;;;4.30;3.90;;;16.10;99.90;;;;;;5087435;28;20491;-76
2022/04/29 08:58:39;;;;;;;7.60;4.07;;;;;;;;;;5090058;28;21004;-74
2022/04/29 09:01:08;;;;;;;4.90;4.27;;;;;;;;;;5066271;28;20922;-74
2022/04/29 09:03:35;;;;;;;3.93;3.20;;;;;;;;;;5091122;28;20445;-73
2022/04/29 09:06:04;;;;;;;4.80;3.73;;;;;;;;;;5072870;28;20453;-73
2022/04/29 09:08:33;;;;;;;5.23;3.87;;;;;;;;;;5072217;28;20445;-72
2022/04/29 09:11:01;;;;;;;5.83;4.10;;;;;;;;;;5084706;28;20468;-75
2022/04/29 09:13:30;;;;;;;4.63;3.70;;;;;;;;;;5073635;28;20521;-75
2022/04/29 09:15:59;;;;;;;4.83;3.03;;;;;;;;;;5086093;28;20930;-74
2022/04/29 09:18:34;;;;;;;5.17;3.57;;;;;;;;;;5082853;28;20470;-74
2022/04/29 09:21:01;;;;;;;5.37;3.30;;;;;;;;;;5066415;28;20494;-74
2022/04/29 09:23:29;;;;;;;3.27;3.00;;;;;;;;;;5088502;28;20957;-73
2022/04/29 09:25:58;;;;;;;3.57;3.27;;;;;;;;;;5085705;28;20434;-75
2022/04/29 09:28:26;;;;;;;4.37;3.10;;;;;;;;;;5087436;28;20493;-73
2022/04/29 09:30:57;;;;;;;3.60;2.83;;;;;;;;;;5080158;28;20527;-74
2022/04/29 09:33:25;;;;;;;5.67;2.60;;;;;;;;;;5072920;28;20454;-79
2022/04/29 09:35:53;;;;;;;2.20;2.00;;;;;;;;;;5070149;28;20531;-74
2022/04/29 09:41:05;;;;;;;3.50;2.67;;;;;;;;;;5080068;28;20907;-78
2022/04/29 09:43:34;;;;;;;4.07;3.00;;;;;;;;;;5084712;28;20818;-77
2022/04/29 09:46:16;;;;;;;2.83;2.30;;;;;;;;;;5072434;28;20535;-79
2022/04/29 09:48:57;;;;;;;5.20;3.03;;;;;;;;;;5067676;28;20449;-78
2022/04/29 09:51:47;;;;;;;4.47;2.80;;;;;;;;;;5078011;28;20442;-72
2022/04/29 09:54:18;;;;;;;4.70;3.20;;;;;;;;;;5079584;28;20790;-74
2022/04/29 09:56:46;;;;;;;3.50;3.00;;;;;;;;;;5061706;28;20458;-78
2022/04/29 09:59:13;;;;;;;3.03;2.73;;;;;;;;;;5076448;28;20561;-78
2022/04/29 10:01:42;;;;;;;3.60;2.37;;;;;;;;;;5059015;28;20454;-78
2022/04/29 10:04:11;;;;;;;4.67;3.33;;;;;;;;;;5064635;28;20532;-77
2022/04/29 10:06:41;;;;;;;3.33;2.70;;;;;;;;;;5066821;28;20446;-78
2022/04/29 10:09:14;;;;;;;3.27;2.20;;;;;;;;;;5078380;28;20519;-78
2022/04/29 10:11:42;;;;;;;4.63;3.07;;;;;;;;;;5077511;28;20525;-79
2022/04/29 10:14:10;;;;;;;2.77;2.50;;;;;;;;;;5061348;28;20495;-77
2022/04/29 10:16:37;;;;;;;2.93;2.70;;;;;;;;;;5070821;28;20442;-76
2022/04/29 10:21:58;;;;;;;4.30;2.47;;;;;;;;;;5091159;28;20517;-75
2022/04/29 10:24:26;;;;;;;2.37;2.10;;;;;;;;;;5090997;28;20447;-75
2022/04/29 10:26:54;;;;;;;2.20;1.90;;;;;;;;;;5090332;28;20970;-75
2022/04/29 10:29:22;;;;;;;1.60;1.50;;;;;;;;;;5079993;28;21009;-75
2022/04/29 10:32:08;;;;;;;2.57;1.50;;;;;;;;;;5089193;28;20564;-75
2022/04/29 10:34:37;;;;;;;2.20;2.00;;;;;;;;;;5089775;28;20843;-75
2022/04/29 10:37:11;;;;;;;6.23;2.30;;;;;;;;;;5090929;28;20498;-75
2022/04/29 10:39:38;;;;;;;1.87;1.77;;;;;;;;;;5089813;28;20440;-75
2022/04/29 10:42:08;;;;;;;1.63;1.53;;;;;;;;;;5090834;28;20531;-75
2022/04/29 10:44:35;;;;;;;2.17;1.97;;;;;;;;;;5089632;28;20441;-75
2022/04/29 10:47:30;;;;;;;2.67;2.20;;;;;;;;;;5090603;28;20444;-75
2022/04/29 10:50:25;;;;;;;2.10;1.90;;;;;;;;;;5091035;28;20441;-75
2022/04/29 10:53:00;;;;;;;2.70;2.00;;;;;;;;;;5089501;28;20450;-75
2022/04/29 10:55:27;;;;;;;3.17;2.23;;;;;;;;;;5073198;28;20425;-75
2022/04/29 10:57:58;;;;;;;3.37;2.20;;;;;;;;;;5063159;28;20565;-75
2022/04/29 11:00:25;;;;;;;1.97;1.50;;;;;;;;;;5085084;28;20447;-75
2022/04/29 11:02:52;;;;;;;2.20;1.97;;;;;;;;;;5090121;28;20576;-76
2022/04/29 11:05:35;;;;;;;2.30;2.10;;;;;;;;;;5090353;28;20534;-75
2022/04/29 11:08:08;;;;;;;2.50;2.00;;;;;;;;;;5090720;28;20441;-76
2022/04/29 11:10:50;;;;;;;3.73;1.70;;;;;;;;;;5074122;28;20454;-74
2022/04/29 11:13:22;;;;;;;2.93;2.23;;;;;;;;;;5070069;28;20494;-76
2022/04/29 11:15:49;;;;;;;2.27;1.90;;;;;;;;;;5055246;28;20450;-72
2022/04/29 11:18:19;;;;;;;1.97;1.80;;;;;;;;;;5067990;28;20561;-75
2022/04/29 11:20:48;;;;;;;4.07;2.30;;;;;;;;;;5076806;28;20441;-75
2022/04/29 11:26:12;;;;;;;2.13;1.83;;;;;;;;;;5073515;28;20500;-75
2022/04/29 11:28:39;;;;;;;1.83;1.70;;;;;;;;;;5080931;28;21042;-75
2022/04/29 11:31:08;;;;;;;2.40;2.20;;;;;;;;;;5073101;28;20441;-75
2022/04/29 11:33:35;;;;;;;2.50;1.90;;;;;;;;;;5068380;28;20450;-79
2022/04/29 11:36:03;;;;;;;2.00;1.63;;;;;;;;;;5062337;28;20442;-75
2022/04/29 11:38:32;;;;;;;2.37;2.17;;;;;;;;;;5061769;28;20555;-76
2022/04/29 11:41:03;;;;;;;2.33;1.73;;;;;;;;;;5084240;28;20445;-74
2022/04/29 11:43:30;;;;;;;3.07;2.37;;;;;;;;;;5059693;28;20497;-75
2022/04/29 11:46:02;;;;;;;2.23;2.00;;;;;;;;;;5074655;28;20541;-76
2022/04/29 11:48:29;;;;;;;1.90;1.70;;;;;;;;;;5057338;28;20447;-74
2022/04/29 11:50:58;;;;;;;2.33;1.90;;;;;;;;;;5066050;28;20446;-76
2022/04/29 11:53:25;;;;;;;2.07;1.87;;;;;;;;;;5068660;28;20433;-74
2022/04/29 11:55:54;;;;;;;1.83;1.63;;;;;;;;;;5068497;28;20606;-78
2022/04/29 11:58:21;;;;;;;2.80;2.10;;;;;;;;;;5077779;28;20496;-78
2022/04/29 12:00:54;;;;;;;2.43;2.10;;;;;;;;;;5078353;28;20995;-74
2022/04/29 12:03:22;;;;;;;2.57;2.00;;;;;;;;;;5089183;28;20448;-77
2022/04/29 12:05:49;;;;;;;2.87;2.30;;;;;;;;;;5075629;28;20764;-76
2022/04/29 12:08:17;;;;;;;2.37;1.77;;;;;;;;;;5075303;28;20449;-75
2022/04/29 12:10:45;;;;;;;2.20;2.07;;;;;;;;;;5068288;28;20453;-76
2022/04/29 12:13:14;;;;;;;1.90;1.80;;;;;;;;;;5065622;28;20529;-74
2022/04/29 12:15:42;;;;;;;2.80;2.50;;;;;;;;;;5079038;28;20515;-74
2022/04/29 12:18:10;;;;;;;2.63;2.40;;;;;;;;;;5090872;28;20559;-74
2022/04/29 12:20:38;;;;;;;2.50;2.30;;;;;;;;;;5060360;28;20530;-77
2022/04/29 12:23:12;;;;;;;3.37;2.70;;;;;;;;;;5084691;28;20528;-78
2022/04/29 12:25:42;;;;;;;3.50;2.77;;;;;;;;;;5089128;28;20454;-79
2022/04/29 12:28:15;;;;;;;2.17;1.97;;;;;;;;;;5075678;28;21039;-74
2022/04/29 12:36:13;;;;;;;2.40;1.93;;;;;;;;;;5091792;28;20510;-74
2022/04/29 12:38:42;;;;;;;2.77;2.53;;;;;;;;;;5092122;28;20512;-74
2022/04/29 12:41:25;;;;;;;2.60;2.17;;;;;;;;;;5092770;28;20436;-74
2022/04/29 12:43:54;;;;;;;1.97;1.70;;;;;;;;;;5091729;28;20437;-74
2022/04/29 12:46:22;;;;;;;3.40;1.93;;;;;;;;;;5092450;28;20447;-74
2022/04/29 12:48:50;;;;;;;3.00;2.30;;;;;;;;;;5091905;28;20787;-74
2022/04/29 12:51:24;;;;;;;2.57;2.37;;;;;;;;;;5092449;28;20472;-74
2022/04/29 12:53:51;;;;;;;2.20;2.00;;;;;;;;;;5087727;28;20449;-74
2022/04/29 12:56:26;;;;;;;2.40;2.20;;;;;;;;;;5079133;28;20445;-73
2022/04/29 12:58:54;;;;;;;3.10;2.13;;;;;;;;;;5086272;28;21030;-74
2022/04/29 13:01:22;;;;;;;3.00;2.60;;;;;;;;;;5092470;28;20441;-74
2022/04/29 13:03:50;;;;;;;2.70;2.20;;;;;;;;;;5091197;28;21046;-74
2022/04/29 13:06:20;;;;;;;2.30;2.10;;;;;;;;;;5091967;28;20496;-75
2022/04/29 13:08:48;;;;;;;1.93;1.83;;;;;;;;;;5091491;28;20501;-74
2022/04/29 13:11:17;;;;;;;2.80;1.97;;;;;;;;;;5091976;28;20437;-75
2022/04/29 13:13:45;;;;;;;2.80;2.37;;;;;;;;;;5091364;28;20440;-75
2022/04/29 13:16:13;;;;;;;2.43;2.23;;;;;;;;;;5092245;28;20531;-75
2022/04/29 13:18:41;;;;;;;3.70;2.20;;;;;;;;;;5091555;28;20559;-75
2022/04/29 13:21:09;;;;;;;2.73;2.20;;;;;;;;;;5091944;28;20921;-75
2022/04/29 13:23:36;;;;;;;2.47;2.27;;;;;;;;;;5090844;28;20448;-74
2022/04/29 13:26:04;;;;;;;2.20;2.00;;;;;;;;;;5091810;28;20865;-75
2022/04/29 13:28:32;;;;;;;2.40;2.10;;;;;;;;;;5086985;28;20472;-75
2022/04/29 13:30:59;;;;;;;2.53;2.33;;;;;;;;;;5083239;28;20515;-75
2022/04/29 13:33:28;;;;;;;2.33;2.10;;;;;;;;;;5091447;28;20448;-75
2022/04/29 13:35:55;;;;;;;2.47;2.07;;;;;;;;;;5091316;28;20449;-75
2022/04/29 13:38:23;;;;;;;2.67;2.43;;;;;;;;;;5091869;28;20476;-75
2022/04/29 13:40:50;;;;;;;2.50;1.97;;;;;;;;;;5091039;28;20476;-75
2022/04/29 13:43:17;;;;;;;2.47;2.10;;;;;;;;;;5090960;28;20437;-74
2022/04/29 13:45:45;;;;;;;2.17;1.97;;;;;;;;;;5092284;28;20533;-75
2022/04/29 13:48:14;;;;;;;2.63;1.80;;;;;;;;;;5092430;28;20856;-75
2022/04/29 13:50:43;;;;;;;2.53;2.13;;;;;;;;;;5093509;28;20437;-74
2022/04/29 13:53:11;;;;;;;2.30;2.10;;;;;;;;;;5068742;28;20461;-74
2022/04/29 13:55:39;;;;;;;2.33;2.13;;;;;;;;;;5078125;28;20442;-74
2022/04/29 13:58:07;;;;;;;2.23;2.03;;;;;;;;;;5092318;28;20495;-74
2022/04/29 14:00:34;;;;;;;2.50;2.30;;;;;;;;;;5086708;28;20773;-75
2022/04/29 14:03:01;;;;;;;2.67;2.47;;;;;;;;;;5091416;28;20535;-74
2022/04/29 14:05:29;;;;;;;3.00;2.30;;;;;;;;;;5091499;28;20437;-74
2022/04/29 14:07:58;;;;;;;2.70;2.13;;;;;;;;;;5091523;28;20445;-75
2022/04/29 14:10:25;;;;;;;3.93;2.50;;;;;;;;;;5091565;28;20484;-74
2022/04/29 14:12:52;;;;;;;2.40;2.20;;;;;;;;;;5090398;28;20437;-73
2022/04/29 14:15:20;;;;;;;2.83;2.63;;;;;;;;;;5091085;28;20540;-74
2022/04/29 14:17:47;;;;;;;3.63;2.50;;;;;;;;;;5090702;28;20792;-74
2022/04/29 14:20:15;;;;;;;2.40;2.20;;;;;;;;;;5091231;28;20472;-74
2022/04/29 14:22:43;;;;;;;3.03;2.73;;;;;;;;;;5090681;28;20471;-73
2022/04/29 14:25:13;;;;;;;2.03;1.83;;;;;;;;;;5090854;28;20472;-74
2022/04/29 14:27:40;;;;;;;2.57;1.90;;;;;;;;;;5089062;28;20480;-74
2022/04/29 14:30:08;;;;;;;2.43;2.20;;;;;;;;;;5062846;28;20513;-74
2022/04/29 14:32:35;;;;;;;2.93;2.30;;;;;;;;;;5079618;28;20991;-74
2022/04/29 14:35:04;;;;;;;3.03;2.40;;;;;;;;;;5089554;28;20780;-74
2022/04/29 14:37:32;;;;;;;2.40;2.07;;;;;;;;;;5060452;28;20458;-74
2022/04/29 14:39:59;;;;;;;2.30;2.07;;;;;;;;;;5088945;28;20479;-74
2022/04/29 14:42:29;;;;;;;1.90;1.77;;;;;;;;;;5074349;28;20458;-74
2022/04/29 14:44:57;;;;;;;2.57;2.30;;;;;;;;;;5076588;28;20432;-74
2022/04/29 14:47:24;;;;;;;2.70;2.50;;;;;;;;;;5073504;28;20525;-74
2022/04/29 14:49:51;;;;;;;2.50;2.30;;;;;;;;;;5089152;28;20510;-74
2022/04/29 14:52:18;;;;;;;2.60;2.40;;;;;;;;;;5071893;28;20983;-74
2022/04/29 14:54:46;;;;;;;3.70;2.27;;;;;;;;;;5074912;28;20814;-74
2022/04/29 14:57:14;;;;;;;2.57;2.37;;;;;;;;;;5078821;28;20810;-74
2022/04/29 14:59:42;;;;;;;2.97;2.77;;;;;;;;;;5086484;28;21043;-74
2022/04/29 15:02:10;;;;;;;3.03;2.67;;;;;;;;;;5094476;28;20836;-74
2022/04/29 15:04:38;;;;;;;2.17;2.07;;;;;;;;;;5093585;28;20471;-74
2022/04/29 15:07:05;;;;;;;4.57;2.37;;;;;;;;;;5094260;28;20456;-74
2022/04/29 15:17:49;;;;;;;2.20;1.80;;;;;;;;;;5093780;28;20947;-74
2022/04/29 15:20:16;;;;;;;2.40;2.20;;;;;;;;;;5094321;28;20963;-74
2022/04/29 15:22:44;;;;;;;2.20;2.00;;;;;;;;;;5093022;28;20524;-74
2022/04/29 15:25:11;;;;;;;4.53;2.40;;;;;;;;;;5094297;28;20807;-74
2022/04/29 15:27:38;;;;;;;2.97;2.10;;;;;;;;;;5093628;28;20539;-74
2022/04/29 15:30:08;;;;;;;3.00;2.60;;;;;;;;;;5081519;28;20845;-75
2022/04/29 15:32:35;;;;;;;2.63;2.40;;;;;;;;;;5093550;28;20536;-74